createdAt,value
2023-03-20T00:00:56.736Z,3.30
2023-03-20T00:01:59.143Z,3.15
2023-03-20T00:03:01.897Z,3.20
2023-03-20T00:04:04.326Z,3.08
2023-03-20T00:05:18.901Z,2.95
2023-03-20T00:06:23.892Z,3.00
2023-03-20T00:07:26.520Z,2.80
2023-03-20T00:08:29.772Z,2.35
2023-03-20T00:09:33.006Z,2.50
2023-03-20T00:10:39.265Z,2.70
2023-03-20T00:11:48.409Z,2.80
2023-03-20T00:12:51.813Z,2.50
2023-03-20T00:13:55.897Z,2.50
2023-03-20T00:15:02.842Z,2.70
2023-03-20T00:16:06.219Z,2.60
2023-03-20T00:17:20.169Z,2.70
2023-03-20T00:18:23.530Z,2.75
2023-03-20T00:19:28.022Z,2.80
2023-03-20T00:20:31.687Z,2.20
2023-03-20T00:21:34.388Z,2.10
2023-03-20T00:22:36.801Z,2.25
2023-03-20T00:23:39.117Z,2.50
2023-03-20T00:24:41.516Z,2.60
2023-03-20T00:25:46.528Z,3.33
2023-03-20T00:26:50.771Z,2.60
2023-03-20T00:27:53.192Z,2.78
2023-03-20T00:28:56.490Z,2.63
2023-03-20T00:29:58.953Z,2.80
2023-03-20T00:31:01.249Z,2.80
2023-03-20T00:32:03.606Z,3.30
2023-03-20T00:33:10.156Z,3.13
2023-03-20T00:34:15.180Z,2.78
2023-03-20T00:35:29.503Z,3.28
2023-03-20T00:36:31.808Z,3.55
2023-03-20T00:37:34.938Z,3.50
2023-03-20T00:38:37.217Z,4.65
2023-03-20T00:39:41.355Z,3.80
2023-03-20T00:40:44.635Z,4.22
2023-03-20T00:41:56.669Z,4.35
2023-03-20T00:43:02.089Z,4.50
2023-03-20T00:44:17.009Z,4.00
2023-03-20T00:45:21.256Z,3.47
2023-03-20T00:46:24.411Z,3.78
2023-03-20T00:47:27.716Z,3.80
2023-03-20T00:48:30.600Z,4.03
2023-03-20T00:49:35.414Z,3.80
2023-03-20T00:50:37.752Z,3.58
2023-03-20T00:51:42.469Z,3.60
2023-03-20T00:52:45.114Z,3.25
2023-03-20T00:53:47.830Z,3.20
2023-03-20T00:54:50.333Z,3.90
2023-03-20T00:55:52.711Z,3.40
2023-03-20T00:57:08.604Z,3.63
2023-03-20T00:58:12.005Z,3.78
2023-03-20T00:59:21.650Z,3.58
2023-03-20T01:00:26.627Z,4.05
2023-03-20T01:01:29.913Z,4.00
2023-03-20T01:02:32.753Z,4.30
2023-03-20T01:03:38.536Z,4.22
2023-03-20T01:04:43.237Z,3.85
2023-03-20T01:05:46.508Z,3.97
2023-03-20T01:06:48.881Z,5.00
2023-03-20T01:07:51.253Z,3.50
2023-03-20T01:08:53.524Z,4.03
2023-03-20T01:09:56.265Z,4.35
2023-03-20T01:10:58.966Z,4.50
2023-03-20T01:12:02.282Z,5.07
2023-03-20T01:13:06.800Z,4.32
2023-03-20T01:14:14.877Z,4.95
2023-03-20T01:15:23.385Z,4.70
2023-03-20T01:16:27.214Z,4.30
2023-03-20T01:17:30.076Z,4.35
2023-03-20T01:18:32.398Z,4.20
2023-03-20T01:19:34.650Z,4.32
2023-03-20T01:20:37.125Z,4.38
2023-03-20T01:21:39.627Z,4.43
2023-03-20T01:22:42.097Z,4.00
2023-03-20T01:23:44.648Z,4.25
2023-03-20T01:24:47.565Z,4.65
2023-03-20T01:25:51.428Z,4.20
2023-03-20T01:26:54.788Z,4.05
2023-03-20T01:27:58.215Z,4.45
2023-03-20T01:29:01.616Z,4.90
2023-03-20T01:30:16.759Z,5.07
2023-03-20T01:31:19.612Z,5.10
2023-03-20T01:32:21.888Z,4.90
2023-03-20T01:33:27.875Z,5.13
2023-03-20T01:34:31.373Z,4.80
2023-03-20T01:35:33.962Z,4.88
2023-03-20T01:36:40.503Z,5.43
2023-03-20T01:37:43.901Z,5.50
2023-03-20T01:38:51.372Z,4.45
2023-03-20T01:39:54.464Z,4.70
2023-03-20T01:41:25.374Z,5.35
2023-03-20T01:42:28.826Z,5.20
2023-03-20T01:43:34.224Z,5.03
2023-03-20T01:44:38.380Z,4.90
2023-03-20T01:45:50.341Z,4.65
2023-03-20T01:46:53.856Z,5.40
2023-03-20T01:47:56.356Z,4.60
2023-03-20T01:49:21.683Z,4.47
2023-03-20T01:50:31.789Z,4.65
2023-03-20T01:51:42.836Z,4.97
2023-03-20T01:52:49.019Z,4.57
2023-03-20T01:53:57.329Z,5.00
2023-03-20T01:54:59.692Z,4.15
2023-03-20T01:56:02.173Z,4.45
2023-03-20T01:57:20.658Z,4.50
2023-03-20T01:58:31.417Z,4.05
2023-03-20T01:59:40.940Z,4.47
2023-03-20T02:00:43.841Z,4.28
2023-03-20T02:01:51.252Z,4.50
2023-03-20T02:02:56.895Z,5.95
2023-03-20T02:04:24.498Z,5.35
2023-03-20T02:05:32.220Z,5.43
2023-03-20T02:06:36.116Z,5.82
2023-03-20T02:08:11.812Z,5.18
2023-03-20T02:09:14.578Z,5.05
2023-03-20T02:10:19.564Z,5.53
2023-03-20T02:11:35.031Z,4.88
2023-03-20T02:12:38.927Z,5.55
2023-03-20T02:13:43.103Z,5.63
2023-03-20T02:14:48.179Z,5.35
2023-03-20T02:16:07.616Z,5.38
2023-03-20T02:17:33.752Z,5.47
2023-03-20T02:18:44.299Z,5.60
2023-03-20T02:19:49.772Z,5.20
2023-03-20T02:21:29.557Z,5.32
2023-03-20T02:22:59.669Z,5.43
2023-03-20T02:24:44.746Z,5.30
2023-03-20T02:26:17.773Z,5.15
2023-03-20T02:27:56.161Z,5.40
2023-03-20T02:29:26.738Z,5.90
2023-03-20T02:30:47.437Z,5.13
2023-03-20T02:32:51.747Z,6.78
2023-03-20T02:34:22.499Z,5.03
2023-03-20T02:35:47.742Z,5.65
2023-03-20T02:36:55.423Z,5.15
2023-03-20T02:38:16.859Z,5.15
2023-03-20T02:39:57.591Z,5.03
2023-03-20T02:41:15.812Z,5.68
2023-03-20T02:42:20.963Z,5.00
2023-03-20T02:43:26.144Z,5.55
2023-03-20T02:45:14.257Z,5.20
2023-03-20T02:46:48.188Z,5.57
2023-03-20T02:48:39.285Z,5.18
2023-03-20T02:49:53.610Z,5.45
2023-03-20T02:51:04.505Z,5.53
2023-03-20T02:52:43.746Z,5.20
2023-03-20T02:54:33.814Z,4.95
2023-03-20T02:55:54.631Z,4.88
2023-03-20T02:56:59.698Z,5.25
2023-03-20T02:58:30.792Z,5.35
2023-03-20T03:00:09.897Z,4.72
2023-03-20T03:01:20.232Z,4.82
2023-03-20T03:02:32.143Z,5.07
2023-03-20T03:03:57.279Z,4.93
2023-03-20T03:05:06.711Z,4.68
2023-03-20T03:06:21.060Z,5.57
2023-03-20T03:07:28.248Z,5.60
2023-03-20T03:08:35.833Z,5.28
2023-03-20T03:09:53.334Z,5.13
2023-03-20T03:11:00.862Z,5.63
2023-03-20T03:12:19.803Z,5.25
2023-03-20T03:13:29.132Z,6.32
2023-03-20T03:14:43.134Z,6.40
2023-03-20T03:15:53.983Z,5.95
2023-03-20T03:16:57.630Z,6.25
2023-03-20T03:18:05.536Z,6.97
2023-03-20T03:19:13.249Z,6.55
2023-03-20T03:20:37.515Z,6.90
2023-03-20T03:21:41.628Z,6.55
2023-03-20T03:22:43.907Z,4.97
2023-03-20T03:23:49.283Z,6.25
2023-03-20T03:24:53.800Z,6.38
2023-03-20T03:26:01.017Z,6.70
2023-03-20T03:27:10.463Z,6.90
2023-03-20T03:28:37.441Z,6.97
2023-03-20T03:29:42.314Z,7.45
2023-03-20T03:30:45.446Z,6.30
2023-03-20T03:31:48.421Z,6.55
2023-03-20T03:33:13.360Z,6.50
2023-03-20T03:34:18.332Z,6.18
2023-03-20T03:35:22.222Z,6.78
2023-03-20T03:36:43.247Z,6.03
2023-03-20T03:38:26.487Z,5.40
2023-03-20T03:39:38.929Z,6.10
2023-03-20T03:40:46.535Z,6.30
2023-03-20T03:41:55.746Z,5.55
2023-03-20T03:43:00.929Z,5.72
2023-03-20T03:44:27.868Z,5.80
2023-03-20T03:45:35.024Z,6.00
2023-03-20T03:47:03.117Z,6.13
2023-03-20T03:48:21.287Z,6.88
2023-03-20T03:49:36.709Z,6.97
2023-03-20T03:50:48.961Z,7.40
2023-03-20T03:51:58.614Z,7.80
2023-03-20T03:53:08.091Z,6.95
2023-03-20T03:54:22.217Z,7.25
2023-03-20T03:55:52.274Z,6.80
2023-03-20T03:56:56.285Z,6.40
2023-03-20T03:58:07.186Z,6.60
2023-03-20T03:59:17.295Z,6.75
2023-03-20T04:00:23.663Z,5.78
2023-03-20T04:01:27.784Z,6.68
2023-03-20T04:02:30.470Z,6.00
2023-03-20T04:03:37.972Z,6.25
2023-03-20T04:04:46.291Z,5.35
2023-03-20T04:05:51.544Z,5.35
2023-03-20T04:06:55.858Z,5.28
2023-03-20T04:08:00.058Z,5.63
2023-03-20T04:09:02.341Z,5.68
2023-03-20T04:10:05.000Z,6.15
2023-03-20T04:11:13.237Z,5.90
2023-03-20T04:12:37.664Z,5.60
2023-03-20T04:13:41.884Z,5.20
2023-03-20T04:14:44.395Z,5.68
2023-03-20T04:15:46.701Z,5.30
2023-03-20T04:16:49.212Z,5.63
2023-03-20T04:17:51.750Z,5.30
2023-03-20T04:18:55.675Z,4.70
2023-03-20T04:19:58.062Z,4.90
2023-03-20T04:21:00.352Z,5.38
2023-03-20T04:22:03.393Z,4.03
2023-03-20T04:23:06.461Z,5.03
2023-03-20T04:24:09.027Z,4.82
2023-03-20T04:25:18.550Z,5.65
2023-03-20T04:26:21.910Z,4.68
2023-03-20T04:27:25.331Z,5.00
2023-03-20T04:28:27.797Z,5.22
2023-03-20T04:29:59.132Z,4.95
2023-03-20T04:31:30.681Z,5.03
2023-03-20T04:32:51.440Z,5.40
2023-03-20T04:34:08.079Z,5.28
2023-03-20T04:35:33.696Z,4.80
2023-03-20T04:36:40.719Z,5.30
2023-03-20T04:37:44.919Z,5.80
2023-03-20T04:38:47.332Z,5.65
2023-03-20T04:39:49.672Z,5.40
2023-03-20T04:40:52.410Z,5.65
2023-03-20T04:41:54.907Z,5.72
2023-03-20T04:42:57.232Z,5.10
2023-03-20T04:43:59.734Z,5.13
2023-03-20T04:45:02.175Z,5.43
2023-03-20T04:46:05.926Z,5.07
2023-03-20T04:47:08.328Z,5.22
2023-03-20T04:48:14.566Z,4.78
2023-03-20T04:49:17.203Z,4.90
2023-03-20T04:50:19.800Z,3.80
2023-03-20T04:51:22.194Z,4.90
2023-03-20T04:52:26.415Z,4.60
2023-03-20T04:53:28.728Z,4.93
2023-03-20T04:54:31.210Z,5.00
2023-03-20T04:55:33.772Z,5.88
2023-03-20T04:56:36.127Z,5.65
2023-03-20T04:57:53.078Z,4.70
2023-03-20T04:58:55.338Z,5.65
2023-03-20T04:59:58.356Z,5.78
2023-03-20T05:01:00.931Z,5.40
2023-03-20T05:02:03.288Z,4.90
2023-03-20T05:03:05.576Z,4.50
2023-03-20T05:04:08.182Z,4.40
2023-03-20T05:05:10.632Z,4.60
2023-03-20T05:06:12.949Z,5.50
2023-03-20T05:07:18.075Z,4.60
2023-03-20T05:08:27.771Z,6.03
2023-03-20T05:09:34.634Z,5.10
2023-03-20T05:10:38.720Z,8.25
2023-03-20T05:12:04.401Z,7.35
2023-03-20T05:13:32.087Z,6.65
2023-03-20T05:14:57.290Z,6.60
2023-03-20T05:16:14.662Z,5.90
2023-03-20T05:17:46.364Z,6.18
2023-03-20T05:19:14.781Z,5.65
2023-03-20T05:20:17.183Z,6.20
2023-03-20T05:21:51.768Z,4.82
2023-03-20T05:23:13.868Z,5.43
2023-03-20T05:24:21.600Z,5.25
2023-03-20T05:25:46.894Z,4.57
2023-03-20T05:27:09.534Z,5.00
2023-03-20T05:28:32.492Z,5.00
2023-03-20T05:29:46.623Z,4.68
2023-03-20T05:31:05.549Z,4.97
2023-03-20T05:32:28.035Z,4.60
2023-03-20T05:33:53.552Z,4.63
2023-03-20T05:35:02.729Z,5.07
2023-03-20T05:36:18.987Z,5.10
2023-03-20T05:37:50.794Z,4.28
2023-03-20T05:39:11.714Z,5.47
2023-03-20T05:40:25.656Z,5.18
2023-03-20T05:41:53.200Z,5.70
2023-03-20T05:43:10.585Z,4.95
2023-03-20T05:44:34.639Z,5.88
2023-03-20T05:46:06.475Z,5.03
2023-03-20T05:47:34.943Z,5.90
2023-03-20T05:48:56.316Z,5.57
2023-03-20T05:50:24.402Z,5.38
2023-03-20T05:51:50.085Z,5.38
2023-03-20T05:53:18.663Z,5.32
2023-03-20T05:54:50.336Z,5.18
2023-03-20T05:56:09.210Z,4.90
2023-03-20T05:57:47.055Z,4.40
2023-03-20T05:59:03.231Z,5.20
2023-03-20T06:00:25.509Z,6.20
2023-03-20T06:01:47.655Z,5.57
2023-03-20T06:03:10.729Z,7.20
2023-03-20T06:04:29.505Z,7.22
2023-03-20T06:05:59.269Z,7.18
2023-03-20T06:07:01.745Z,7.50
2023-03-20T06:08:04.799Z,7.55
2023-03-20T06:09:07.368Z,6.85
2023-03-20T06:10:11.227Z,6.40
2023-03-20T06:11:13.669Z,6.90
2023-03-20T06:12:17.255Z,7.03
2023-03-20T06:13:19.892Z,6.07
2023-03-20T06:14:22.350Z,5.88
2023-03-20T06:15:31.591Z,6.32
2023-03-20T06:16:43.067Z,7.28
2023-03-20T06:17:46.046Z,6.32
2023-03-20T06:18:49.914Z,6.15
2023-03-20T06:19:52.390Z,5.43
2023-03-20T06:20:56.194Z,6.55
2023-03-20T06:21:59.819Z,6.50
2023-03-20T06:23:02.170Z,7.53
2023-03-20T06:24:05.554Z,6.20
2023-03-20T06:25:08.289Z,6.15
2023-03-20T06:26:15.169Z,7.10
2023-03-20T06:27:35.702Z,7.28
2023-03-20T06:28:38.986Z,7.07
2023-03-20T06:29:43.393Z,7.93
2023-03-20T06:30:53.567Z,9.48
2023-03-20T06:31:57.067Z,9.55
2023-03-20T06:33:06.892Z,9.77
2023-03-20T06:34:16.765Z,9.15
2023-03-20T06:35:21.165Z,10.23
2023-03-20T06:36:25.623Z,9.43
2023-03-20T06:37:34.245Z,10.05
2023-03-20T06:38:42.313Z,11.02
2023-03-20T06:39:48.885Z,11.80
2023-03-20T06:40:51.225Z,10.82
2023-03-20T06:41:54.261Z,11.68
2023-03-20T06:42:59.410Z,13.90
2023-03-20T06:44:12.896Z,11.45
2023-03-20T06:45:53.888Z,12.70
2023-03-20T06:47:02.125Z,12.38
2023-03-20T06:48:11.382Z,13.25
2023-03-20T06:49:14.968Z,13.00
2023-03-20T06:50:17.424Z,14.70
2023-03-20T06:51:20.165Z,14.50
2023-03-20T06:52:27.135Z,13.70
2023-03-20T06:53:51.620Z,14.32
2023-03-20T06:54:57.961Z,15.73
2023-03-20T06:56:00.663Z,16.15
2023-03-20T06:57:03.353Z,18.08
2023-03-20T06:58:05.784Z,17.85
2023-03-20T06:59:09.730Z,17.60
2023-03-20T07:00:12.663Z,16.27
2023-03-20T07:01:19.899Z,17.08
2023-03-20T07:02:22.232Z,17.25
2023-03-20T07:03:24.546Z,18.50
2023-03-20T07:04:27.754Z,19.50
2023-03-20T07:05:34.303Z,21.83
2023-03-20T07:06:39.711Z,22.02
2023-03-20T07:07:42.559Z,22.00
2023-03-20T07:08:45.441Z,25.33
2023-03-20T07:09:48.617Z,26.38
2023-03-20T07:10:51.753Z,28.92
2023-03-20T07:11:54.545Z,26.33
2023-03-20T07:12:57.843Z,25.55
2023-03-20T07:14:01.527Z,26.75
2023-03-20T07:15:15.059Z,25.20
2023-03-20T07:16:18.036Z,28.02
2023-03-20T07:17:20.669Z,25.45
2023-03-20T07:18:23.189Z,25.70
2023-03-20T07:19:26.144Z,25.17
2023-03-20T07:20:31.923Z,23.70
2023-03-20T07:21:34.837Z,25.88
2023-03-20T07:22:37.519Z,28.10
2023-03-20T07:23:52.643Z,26.73
2023-03-20T07:24:55.294Z,26.27
2023-03-20T07:26:00.114Z,27.35
2023-03-20T07:27:02.503Z,27.80
2023-03-20T07:28:06.304Z,27.73
2023-03-20T07:29:10.327Z,27.63
2023-03-20T07:30:13.889Z,26.60
2023-03-20T07:31:22.709Z,28.67
2023-03-20T07:32:29.719Z,26.08
2023-03-20T07:33:32.028Z,26.05
2023-03-20T07:34:34.778Z,26.92
2023-03-20T07:35:37.558Z,26.33
2023-03-20T07:36:41.970Z,26.05
2023-03-20T07:37:45.672Z,25.83
2023-03-20T07:38:48.105Z,26.05
2023-03-20T07:39:50.883Z,28.48
2023-03-20T07:41:02.798Z,25.05
2023-03-20T07:42:05.762Z,26.85
2023-03-20T07:43:17.765Z,24.33
2023-03-20T07:44:35.648Z,25.25
2023-03-20T07:45:43.690Z,24.40
2023-03-20T07:46:47.357Z,26.50
2023-03-20T07:47:51.531Z,24.55
2023-03-20T07:48:53.902Z,24.77
2023-03-20T07:49:56.611Z,27.25
2023-03-20T07:50:59.179Z,25.30
2023-03-20T07:52:02.049Z,22.98
2023-03-20T07:53:05.707Z,24.42
2023-03-20T07:54:08.098Z,25.85
2023-03-20T07:55:12.324Z,23.15
2023-03-20T07:56:14.708Z,22.45
2023-03-20T07:57:17.139Z,20.73
2023-03-20T07:58:19.440Z,21.33
2023-03-20T07:59:21.934Z,20.30
2023-03-20T08:00:25.614Z,19.92
2023-03-20T08:01:29.757Z,20.27
2023-03-20T08:02:32.202Z,18.52
2023-03-20T08:03:34.763Z,17.73
2023-03-20T08:04:37.162Z,18.58
2023-03-20T08:05:40.532Z,18.65
2023-03-20T08:06:43.665Z,16.80
2023-03-20T08:07:46.340Z,18.92
2023-03-20T08:08:52.004Z,20.02
2023-03-20T08:09:54.307Z,17.80
2023-03-20T08:10:56.687Z,18.00
2023-03-20T08:11:59.121Z,16.60
2023-03-20T08:13:01.549Z,20.23
2023-03-20T08:14:03.901Z,19.30
2023-03-20T08:15:06.842Z,17.83
2023-03-20T08:16:09.745Z,18.33
2023-03-20T08:17:15.536Z,17.13
2023-03-20T08:18:20.349Z,17.40
2023-03-20T08:19:22.904Z,17.60
2023-03-20T08:20:25.464Z,17.65
2023-03-20T08:21:29.184Z,17.45
2023-03-20T08:22:31.625Z,16.50
2023-03-20T08:23:34.084Z,19.58
2023-03-20T08:24:36.679Z,18.48
2023-03-20T08:25:39.191Z,18.58
2023-03-20T08:26:41.815Z,17.88
2023-03-20T08:27:44.506Z,18.67
2023-03-20T08:28:48.619Z,18.92
2023-03-20T08:29:51.727Z,19.70
2023-03-20T08:30:54.022Z,19.55
2023-03-20T08:31:58.311Z,19.75
2023-03-20T08:33:00.763Z,22.02
2023-03-20T08:34:03.119Z,22.05
2023-03-20T08:35:05.882Z,21.70
2023-03-20T08:36:08.548Z,21.15
2023-03-20T08:37:12.646Z,21.55
2023-03-20T08:38:14.936Z,22.73
2023-03-20T08:39:17.209Z,21.52
2023-03-20T08:40:20.133Z,22.90
2023-03-20T08:41:22.382Z,21.85
2023-03-20T08:42:24.665Z,21.50
2023-03-20T08:43:27.170Z,21.40
2023-03-20T08:44:29.619Z,19.33
2023-03-20T08:45:32.195Z,21.13
2023-03-20T08:46:34.935Z,19.65
2023-03-20T08:47:39.590Z,17.58
2023-03-20T08:48:43.304Z,18.17
2023-03-20T08:49:45.680Z,18.05
2023-03-20T08:50:48.210Z,16.58
2023-03-20T08:51:50.667Z,17.38
2023-03-20T08:52:53.090Z,17.13
2023-03-20T08:53:55.800Z,17.17
2023-03-20T08:54:58.058Z,16.88
2023-03-20T08:56:00.560Z,15.55
2023-03-20T08:57:02.885Z,16.98
2023-03-20T08:58:05.191Z,14.27
2023-03-20T08:59:07.479Z,15.93
2023-03-20T09:00:12.914Z,13.65
2023-03-20T09:01:15.713Z,15.18
2023-03-20T09:02:18.092Z,14.98
2023-03-20T09:03:21.798Z,15.23
2023-03-20T09:04:24.199Z,17.23
2023-03-20T09:05:26.514Z,14.88
2023-03-20T09:06:28.868Z,14.35
2023-03-20T09:07:31.197Z,14.75
2023-03-20T09:08:33.624Z,14.63
2023-03-20T09:09:36.449Z,13.52
2023-03-20T09:10:38.758Z,13.40
2023-03-20T09:11:41.220Z,14.38
2023-03-20T09:12:43.721Z,13.50
2023-03-20T09:13:46.158Z,13.05
2023-03-20T09:14:49.235Z,11.60
2023-03-20T09:15:52.515Z,13.52
2023-03-20T09:16:54.849Z,12.95
2023-03-20T09:17:57.194Z,13.98
2023-03-20T09:18:59.545Z,16.15
2023-03-20T09:20:02.136Z,12.82
2023-03-20T09:21:04.842Z,14.48
2023-03-20T09:22:07.131Z,15.00
2023-03-20T09:23:10.190Z,13.27
2023-03-20T09:24:12.529Z,13.82
2023-03-20T09:25:15.320Z,15.80
2023-03-20T09:26:17.674Z,14.30
2023-03-20T09:27:20.257Z,13.60
2023-03-20T09:28:22.559Z,12.43
2023-03-20T09:29:25.433Z,13.60
2023-03-20T09:30:27.730Z,14.10
2023-03-20T09:31:30.538Z,11.95
2023-03-20T09:32:33.499Z,11.82
2023-03-20T09:33:35.889Z,12.60
2023-03-20T09:34:38.356Z,11.25
2023-03-20T09:35:43.506Z,12.10
2023-03-20T09:36:47.652Z,13.18
2023-03-20T09:37:50.366Z,11.95
2023-03-20T09:38:52.637Z,12.23
2023-03-20T09:39:55.842Z,11.50
2023-03-20T09:41:01.557Z,12.85
2023-03-20T09:42:26.153Z,11.75
2023-03-20T09:43:42.184Z,11.93
2023-03-20T09:45:02.301Z,10.95
2023-03-20T09:47:12.525Z,10.50
2023-03-20T09:48:38.109Z,12.20
2023-03-20T09:49:45.450Z,10.50
2023-03-20T09:51:27.901Z,9.82
2023-03-20T09:52:32.247Z,9.15
2023-03-20T09:53:40.852Z,11.00
2023-03-20T09:54:54.435Z,8.95
2023-03-20T09:55:57.758Z,10.73
2023-03-20T09:57:01.429Z,9.55
2023-03-20T09:58:20.468Z,9.75
2023-03-20T09:59:25.246Z,9.07
2023-03-20T10:00:31.411Z,9.95
2023-03-20T10:01:56.093Z,9.70
2023-03-20T10:03:01.481Z,10.60
2023-03-20T10:04:09.696Z,9.18
2023-03-20T10:05:50.334Z,8.55
2023-03-20T10:06:53.308Z,8.55
2023-03-20T10:07:59.400Z,8.60
2023-03-20T10:09:03.106Z,8.88
2023-03-20T10:10:07.594Z,9.95
2023-03-20T10:11:36.605Z,10.35
2023-03-20T10:13:00.245Z,9.30
2023-03-20T10:14:21.992Z,9.60
2023-03-20T10:16:15.028Z,9.40
2023-03-20T10:17:22.802Z,10.93
2023-03-20T10:18:29.896Z,10.52
2023-03-20T10:19:50.883Z,13.32
2023-03-20T10:21:13.708Z,11.88
2023-03-20T10:22:35.966Z,14.32
2023-03-20T10:24:02.493Z,12.50
2023-03-20T10:25:04.837Z,12.07
2023-03-20T10:26:12.309Z,11.82
2023-03-20T10:27:28.216Z,10.85
2023-03-20T10:28:39.890Z,9.65
2023-03-20T10:30:06.444Z,9.50
2023-03-20T10:31:35.214Z,9.30
2023-03-20T10:33:09.136Z,9.77
2023-03-20T10:34:14.228Z,9.15
2023-03-20T10:35:43.141Z,9.68
2023-03-20T10:37:01.440Z,7.75
2023-03-20T10:38:24.132Z,8.73
2023-03-20T10:39:50.582Z,8.65
2023-03-20T10:40:55.423Z,8.90
2023-03-20T10:42:02.348Z,8.10
2023-03-20T10:43:19.776Z,8.35
2023-03-20T10:44:34.765Z,8.45
2023-03-20T10:45:40.048Z,7.82
2023-03-20T10:46:47.877Z,7.68
2023-03-20T10:47:52.533Z,8.30
2023-03-20T10:49:02.721Z,8.55
2023-03-20T10:50:14.735Z,9.05
2023-03-20T10:51:20.449Z,9.65
2023-03-20T10:52:36.092Z,8.40
2023-03-20T10:53:47.616Z,8.52
2023-03-20T10:54:56.568Z,8.85
2023-03-20T10:56:03.374Z,10.20
2023-03-20T10:57:12.775Z,10.07
2023-03-20T10:58:25.745Z,9.80
2023-03-20T10:59:50.287Z,9.40
2023-03-20T11:00:55.875Z,9.00
2023-03-20T11:01:58.243Z,7.68
2023-03-20T11:03:00.547Z,7.75
2023-03-20T11:04:02.961Z,8.20
2023-03-20T11:05:23.119Z,8.75
2023-03-20T11:06:36.775Z,9.63
2023-03-20T11:07:39.391Z,8.75
2023-03-20T11:08:43.734Z,7.72
2023-03-20T11:09:46.524Z,8.95
2023-03-20T11:10:59.394Z,9.23
2023-03-20T11:12:02.920Z,9.82
2023-03-20T11:13:27.651Z,10.05
2023-03-20T11:14:35.580Z,9.77
2023-03-20T11:15:37.959Z,8.00
2023-03-20T11:16:40.797Z,8.95
2023-03-20T11:17:43.095Z,8.38
2023-03-20T11:18:47.171Z,9.07
2023-03-20T11:19:51.583Z,8.52
2023-03-20T11:20:58.482Z,9.10
2023-03-20T11:22:22.296Z,9.40
2023-03-20T11:23:27.750Z,8.35
2023-03-20T11:24:29.966Z,9.60
2023-03-20T11:25:48.100Z,8.47
2023-03-20T11:26:52.037Z,9.40
2023-03-20T11:27:55.904Z,9.20
2023-03-20T11:28:59.790Z,9.95
2023-03-20T11:30:05.012Z,9.35
2023-03-20T11:31:15.812Z,9.05
2023-03-20T11:32:39.458Z,11.40
2023-03-20T11:33:53.736Z,10.75
2023-03-20T11:34:57.773Z,8.93
2023-03-20T11:36:00.378Z,9.93
2023-03-20T11:37:10.653Z,8.82
2023-03-20T11:38:19.729Z,8.07
2023-03-20T11:39:28.003Z,7.60
2023-03-20T11:40:34.808Z,7.03
2023-03-20T11:41:45.265Z,7.35
2023-03-20T11:42:53.393Z,7.00
2023-03-20T11:43:55.870Z,8.00
2023-03-20T11:45:04.346Z,7.28
2023-03-20T11:46:12.805Z,6.78
2023-03-20T11:47:22.183Z,7.82
2023-03-20T11:48:35.907Z,7.75
2023-03-20T11:49:56.048Z,8.20
2023-03-20T11:51:23.480Z,8.43
2023-03-20T11:52:32.964Z,8.00
2023-03-20T11:53:41.677Z,7.20
2023-03-20T11:54:50.844Z,6.90
2023-03-20T11:56:26.290Z,6.82
2023-03-20T11:57:33.266Z,6.70
2023-03-20T11:58:38.704Z,8.88
2023-03-20T11:59:41.441Z,7.78
2023-03-20T12:00:49.144Z,7.72
2023-03-20T12:01:53.892Z,8.40
2023-03-20T12:02:56.278Z,8.80
2023-03-20T12:04:01.529Z,8.25
2023-03-20T12:05:20.749Z,8.88
2023-03-20T12:06:26.315Z,8.45
2023-03-20T12:07:33.823Z,8.00
2023-03-20T12:08:39.408Z,8.88
2023-03-20T12:09:50.857Z,8.25
2023-03-20T12:11:02.035Z,9.38
2023-03-20T12:12:04.767Z,7.80
2023-03-20T12:13:19.588Z,7.95
2023-03-20T12:14:50.427Z,7.65
2023-03-20T12:15:59.765Z,7.22
2023-03-20T12:17:42.802Z,8.27
2023-03-20T12:18:50.046Z,7.95
2023-03-20T12:19:54.185Z,6.97
2023-03-20T12:21:02.261Z,7.85
2023-03-20T12:22:27.145Z,7.63
2023-03-20T12:23:42.287Z,8.40
2023-03-20T12:24:55.062Z,9.57
2023-03-20T12:26:26.373Z,9.50
2023-03-20T12:27:45.378Z,8.48
2023-03-20T12:28:52.097Z,8.52
2023-03-20T12:30:03.783Z,7.30
2023-03-20T12:31:15.693Z,8.35
2023-03-20T12:32:36.989Z,7.20
2023-03-20T12:33:44.824Z,7.72
2023-03-20T12:35:02.505Z,7.40
2023-03-20T12:36:11.528Z,7.95
2023-03-20T12:37:18.333Z,8.55
2023-03-20T12:38:28.210Z,8.05
2023-03-20T12:39:41.563Z,8.00
2023-03-20T12:40:45.064Z,8.30
2023-03-20T12:42:20.329Z,7.00
2023-03-20T12:43:27.502Z,5.70
2023-03-20T12:44:55.905Z,7.40
2023-03-20T12:46:23.589Z,8.35
2023-03-20T12:47:52.123Z,9.20
2023-03-20T12:49:13.005Z,8.75
2023-03-20T12:50:28.367Z,10.85
2023-03-20T12:51:49.428Z,9.38
2023-03-20T12:52:56.968Z,10.35
2023-03-20T12:54:17.002Z,10.00
2023-03-20T12:55:39.673Z,10.15
2023-03-20T12:56:48.896Z,9.85
2023-03-20T12:58:02.021Z,11.15
2023-03-20T12:59:13.821Z,9.20
2023-03-20T13:00:31.001Z,10.07
2023-03-20T13:01:47.144Z,9.23
2023-03-20T13:03:03.270Z,10.63
2023-03-20T13:04:29.748Z,14.60
2023-03-20T13:06:09.982Z,14.20
2023-03-20T13:07:19.619Z,13.93
2023-03-20T13:08:44.661Z,14.02
2023-03-20T13:10:01.704Z,13.25
2023-03-20T13:11:22.834Z,12.13
2023-03-20T13:12:36.525Z,12.03
2023-03-20T13:13:41.845Z,13.38
2023-03-20T13:14:53.209Z,15.13
2023-03-20T13:16:20.124Z,15.85
2023-03-20T13:17:33.964Z,14.25
2023-03-20T13:18:51.351Z,15.48
2023-03-20T13:20:11.993Z,15.10
2023-03-20T13:21:24.468Z,15.00
2023-03-20T13:22:43.138Z,18.02
2023-03-20T13:24:12.855Z,15.05
2023-03-20T13:25:37.282Z,16.30
2023-03-20T13:26:50.541Z,15.77
2023-03-20T13:28:09.705Z,13.82
2023-03-20T13:29:35.843Z,14.45
2023-03-20T13:30:45.234Z,13.88
2023-03-20T13:32:07.036Z,13.23
2023-03-20T13:33:43.807Z,11.98
2023-03-20T13:35:03.854Z,12.85
2023-03-20T13:36:33.718Z,11.63
2023-03-20T13:37:41.768Z,11.73
2023-03-20T13:38:48.537Z,15.18
2023-03-20T13:40:21.222Z,12.55
2023-03-20T13:41:25.325Z,12.48
2023-03-20T13:42:51.631Z,12.35
2023-03-20T13:44:01.273Z,13.07
2023-03-20T13:45:38.689Z,12.20
2023-03-20T13:47:16.491Z,11.43
2023-03-20T13:48:35.458Z,10.75
2023-03-20T13:49:45.928Z,11.30
2023-03-20T13:51:29.990Z,12.35
2023-03-20T13:52:42.660Z,10.45
2023-03-20T13:54:22.030Z,17.92
2023-03-20T13:55:38.621Z,15.82
2023-03-20T13:57:23.160Z,14.25
2023-03-20T13:58:54.063Z,13.50
2023-03-20T14:00:23.778Z,12.40
2023-03-20T14:01:32.350Z,12.27
2023-03-20T14:03:05.901Z,13.43
2023-03-20T14:04:18.635Z,12.00
2023-03-20T14:05:23.594Z,10.73
2023-03-20T14:06:31.868Z,10.57
2023-03-20T14:07:36.454Z,10.18
2023-03-20T14:08:38.793Z,11.88
2023-03-20T14:09:41.194Z,12.45
2023-03-20T14:10:43.710Z,9.30
2023-03-20T14:11:46.167Z,10.48
2023-03-20T14:13:12.942Z,9.85
2023-03-20T14:14:23.795Z,9.60
2023-03-20T14:15:31.500Z,10.05
2023-03-20T14:16:34.100Z,11.65
2023-03-20T14:17:43.225Z,11.10
2023-03-20T14:18:50.021Z,11.13
2023-03-20T14:19:53.913Z,10.45
2023-03-20T14:21:06.469Z,10.18
2023-03-20T14:22:19.982Z,9.60
2023-03-20T14:23:37.694Z,9.85
2023-03-20T14:24:41.478Z,11.00
2023-03-20T14:25:44.120Z,10.85
2023-03-20T14:26:58.734Z,9.73
2023-03-20T14:28:07.560Z,8.88
2023-03-20T14:29:09.749Z,9.05
2023-03-20T14:30:30.688Z,8.73
2023-03-20T14:31:38.004Z,9.20
2023-03-20T14:32:57.844Z,8.40
2023-03-20T14:34:00.647Z,8.77
2023-03-20T14:35:28.609Z,8.73
2023-03-20T14:37:00.738Z,8.02
2023-03-20T14:38:20.088Z,8.57
2023-03-20T14:39:43.664Z,7.00
2023-03-20T14:41:10.613Z,7.10
2023-03-20T14:42:33.926Z,6.80
2023-03-20T14:43:48.013Z,7.53
2023-03-20T14:45:05.837Z,8.23
2023-03-20T14:46:24.550Z,8.65
2023-03-20T14:47:41.778Z,9.07
2023-03-20T14:48:53.417Z,11.55
2023-03-20T14:50:14.637Z,12.25
2023-03-20T14:51:27.733Z,12.82
2023-03-20T14:52:53.372Z,13.30
2023-03-20T14:54:21.978Z,13.27
2023-03-20T14:55:28.105Z,13.55
2023-03-20T14:56:34.359Z,14.27
2023-03-20T14:57:54.807Z,15.32
2023-03-20T14:59:10.532Z,14.00
2023-03-20T15:00:20.164Z,14.80
2023-03-20T15:01:22.386Z,15.60
2023-03-20T15:02:31.489Z,17.33
2023-03-20T15:03:34.436Z,16.25
2023-03-20T15:04:40.213Z,17.67
2023-03-20T15:05:43.664Z,16.73
2023-03-20T15:06:56.619Z,18.20
2023-03-20T15:08:05.977Z,17.40
2023-03-20T15:09:10.661Z,17.98
2023-03-20T15:10:12.989Z,17.98
2023-03-20T15:11:15.972Z,17.90
2023-03-20T15:12:23.583Z,15.82
2023-03-20T15:13:27.907Z,18.55
2023-03-20T15:14:37.361Z,18.52
2023-03-20T15:15:55.283Z,16.73
2023-03-20T15:17:00.373Z,15.98
2023-03-20T15:18:13.317Z,15.82
2023-03-20T15:19:19.037Z,14.80
2023-03-20T15:20:29.351Z,14.43
2023-03-20T15:21:38.094Z,13.90
2023-03-20T15:23:00.627Z,13.23
2023-03-20T15:24:03.299Z,13.75
2023-03-20T15:25:05.899Z,13.50
2023-03-20T15:26:08.570Z,17.63
2023-03-20T15:27:12.994Z,14.57